sensor_id;sensor_type;location;lat;lon;timestamp;pressure;altitude;pressure_sealevel;temperature;humidity
62617;BME280;62539;51.190;6.808;2022-09-21T00:00:51;102272.47;;;21.86;50.03
62617;BME280;62539;51.190;6.808;2022-09-21T00:03:17;102281.31;;;21.85;50.04
62617;BME280;62539;51.190;6.808;2022-09-21T00:05:42;102275.16;;;21.84;49.74
62617;BME280;62539;51.190;6.808;2022-09-21T00:08:10;102270.78;;;21.83;49.78
62617;BME280;62539;51.190;6.808;2022-09-21T00:10:38;102277.84;;;21.83;49.98
62617;BME280;62539;51.190;6.808;2022-09-21T00:13:04;102276.09;;;21.82;50.17
62617;BME280;62539;51.190;6.808;2022-09-21T00:15:31;102275.28;;;21.80;49.84
62617;BME280;62539;51.190;6.808;2022-09-21T00:17:58;102277.91;;;21.80;49.89
62617;BME280;62539;51.190;6.808;2022-09-21T00:20:25;102263.88;;;21.78;49.78
62617;BME280;62539;51.190;6.808;2022-09-21T00:22:51;102274.44;;;21.78;50.24
62617;BME280;62539;51.190;6.808;2022-09-21T00:25:18;102265.69;;;21.76;50.02
62617;BME280;62539;51.190;6.808;2022-09-21T00:27:45;102278.00;;;21.77;50.04
62617;BME280;62539;51.190;6.808;2022-09-21T00:30:15;102279.81;;;21.75;49.77
62617;BME280;62539;51.190;6.808;2022-09-21T00:32:42;102272.78;;;21.73;50.15
62617;BME280;62539;51.190;6.808;2022-09-21T00:35:08;102280.72;;;21.73;49.94
62617;BME280;62539;51.190;6.808;2022-09-21T00:37:34;102277.19;;;21.73;50.07
62617;BME280;62539;51.190;6.808;2022-09-21T00:40:00;102285.09;;;21.73;50.03
62617;BME280;62539;51.190;6.808;2022-09-21T00:42:29;102286.06;;;21.70;49.92
62617;BME280;62539;51.190;6.808;2022-09-21T00:44:56;102288.72;;;21.70;50.25
62617;BME280;62539;51.190;6.808;2022-09-21T00:47:26;102291.38;;;21.69;50.07
62617;BME280;62539;51.190;6.808;2022-09-21T00:49:56;102284.34;;;21.68;49.90
62617;BME280;62539;51.190;6.808;2022-09-21T00:52:25;102286.13;;;21.67;49.92
62617;BME280;62539;51.190;6.808;2022-09-21T00:55:02;102280.88;;;21.66;50.14
62617;BME280;62539;51.190;6.808;2022-09-21T00:57:33;102292.31;;;21.66;50.02
62617;BME280;62539;51.190;6.808;2022-09-21T01:00:05;102286.22;;;21.64;50.15
62617;BME280;62539;51.190;6.808;2022-09-21T01:02:36;102275.66;;;21.63;50.25
62617;BME280;62539;51.190;6.808;2022-09-21T01:05:04;102287.09;;;21.62;50.01
62617;BME280;62539;51.190;6.808;2022-09-21T01:07:34;102280.97;;;21.61;50.04
62617;BME280;62539;51.190;6.808;2022-09-21T01:10:05;102285.41;;;21.59;50.25
62617;BME280;62539;51.190;6.808;2022-09-21T01:12:48;102289.03;;;21.55;50.13
62617;BME280;62539;51.190;6.808;2022-09-21T01:18:00;102289.94;;;21.54;50.01
62617;BME280;62539;51.190;6.808;2022-09-21T01:27:33;102287.44;;;21.48;50.11
62617;BME280;62539;51.190;6.808;2022-09-21T01:30:12;102282.16;;;21.48;50.36
62617;BME280;62539;51.190;6.808;2022-09-21T01:32:46;102284.78;;;21.48;50.21
62617;BME280;62539;51.190;6.808;2022-09-21T01:35:24;102290.16;;;21.44;50.26
62617;BME280;62539;51.190;6.808;2022-09-21T01:38:01;102296.28;;;21.45;50.21
62617;BME280;62539;51.190;6.808;2022-09-21T01:40:32;102292.72;;;21.46;50.28
62617;BME280;62539;51.190;6.808;2022-09-21T01:43:08;102291.88;;;21.46;50.44
62617;BME280;62539;51.190;6.808;2022-09-21T01:45:41;102289.25;;;21.46;50.36
62617;BME280;62539;51.190;6.808;2022-09-21T01:48:13;102293.63;;;21.45;50.45
62617;BME280;62539;51.190;6.808;2022-09-21T01:50:44;102296.34;;;21.43;50.07
62617;BME280;62539;51.190;6.808;2022-09-21T01:53:24;102294.63;;;21.41;50.21
62617;BME280;62539;51.190;6.808;2022-09-21T01:55:58;102289.31;;;21.42;50.21
62617;BME280;62539;51.190;6.808;2022-09-21T01:58:44;102287.66;;;21.38;50.35
62617;BME280;62539;51.190;6.808;2022-09-21T02:01:17;102287.56;;;21.41;50.39
62617;BME280;62539;51.190;6.808;2022-09-21T02:03:50;102286.69;;;21.41;50.27
62617;BME280;62539;51.190;6.808;2022-09-21T02:06:20;102288.50;;;21.39;50.20
62617;BME280;62539;51.190;6.808;2022-09-21T02:08:46;102287.66;;;21.38;50.37
62617;BME280;62539;51.190;6.808;2022-09-21T02:11:12;102285.00;;;21.38;50.17
62617;BME280;62539;51.190;6.808;2022-09-21T02:13:40;102285.91;;;21.37;50.44
62617;BME280;62539;51.190;6.808;2022-09-21T02:19:20;102287.72;;;21.34;50.26
62617;BME280;62539;51.190;6.808;2022-09-21T02:22:03;102300.16;;;21.30;50.49
62617;BME280;62539;51.190;6.808;2022-09-21T02:24:47;102293.13;;;21.29;50.28
62617;BME280;62539;51.190;6.808;2022-09-21T02:30:13;102293.97;;;21.29;50.49
62617;BME280;62539;51.190;6.808;2022-09-21T02:35:28;102286.13;;;21.28;50.26
62617;BME280;62539;51.190;6.808;2022-09-21T02:38:42;102289.72;;;21.24;50.57
62617;BME280;62539;51.190;6.808;2022-09-21T02:41:23;102288.84;;;21.23;50.53
62617;BME280;62539;51.190;6.808;2022-09-21T02:46:36;102283.59;;;21.22;50.30
62617;BME280;62539;51.190;6.808;2022-09-21T02:49:10;102289.75;;;21.22;50.43
62617;BME280;62539;51.190;6.808;2022-09-21T02:51:45;102287.97;;;21.23;50.29
62617;BME280;62539;51.190;6.808;2022-09-21T02:54:17;102290.66;;;21.21;50.25
62617;BME280;62539;51.190;6.808;2022-09-21T02:56:46;102284.50;;;21.21;50.41
62617;BME280;62539;51.190;6.808;2022-09-21T02:59:14;102281.88;;;21.21;50.46
62617;BME280;62539;51.190;6.808;2022-09-21T03:01:41;102283.66;;;21.20;50.58
62617;BME280;62539;51.190;6.808;2022-09-21T03:04:09;102276.66;;;21.19;50.70
62617;BME280;62539;51.190;6.808;2022-09-21T03:06:35;102278.41;;;21.19;50.35
62617;BME280;62539;51.190;6.808;2022-09-21T03:09:01;102281.03;;;21.19;50.29
62617;BME280;62539;51.190;6.808;2022-09-21T03:11:27;102274.03;;;21.18;50.60
62617;BME280;62539;51.190;6.808;2022-09-21T03:13:52;102281.94;;;21.18;50.58
62617;BME280;62539;51.190;6.808;2022-09-21T03:16:17;102273.16;;;21.17;50.36
62617;BME280;62539;51.190;6.808;2022-09-21T03:18:43;102282.84;;;21.17;50.30
62617;BME280;62539;51.190;6.808;2022-09-21T03:21:10;102280.19;;;21.17;50.43
62617;BME280;62539;51.190;6.808;2022-09-21T03:23:36;102280.25;;;21.15;50.45
62617;BME280;62539;51.190;6.808;2022-09-21T03:26:02;102284.66;;;21.14;50.45
62617;BME280;62539;51.190;6.808;2022-09-21T03:28:27;102278.50;;;21.14;50.48
62617;BME280;62539;51.190;6.808;2022-09-21T03:30:53;102285.53;;;21.13;50.32
62617;BME280;62539;51.190;6.808;2022-09-21T03:33:19;102291.72;;;21.12;50.45
62617;BME280;62539;51.190;6.808;2022-09-21T03:35:47;102287.34;;;21.13;50.53
62617;BME280;62539;51.190;6.808;2022-09-21T03:38:13;102295.25;;;21.11;50.61
62617;BME280;62539;51.190;6.808;2022-09-21T03:40:44;102288.25;;;21.10;50.47
62617;BME280;62539;51.190;6.808;2022-09-21T03:43:13;102291.78;;;21.09;50.48
62617;BME280;62539;51.190;6.808;2022-09-21T03:45:39;102290.94;;;21.09;50.59
62617;BME280;62539;51.190;6.808;2022-09-21T03:48:07;102294.47;;;21.08;50.21
62617;BME280;62539;51.190;6.808;2022-09-21T03:50:34;102290.06;;;21.08;50.50
62617;BME280;62539;51.190;6.808;2022-09-21T03:52:59;102293.59;;;21.07;50.54
62617;BME280;62539;51.190;6.808;2022-09-21T03:55:25;102293.59;;;21.07;50.57
62617;BME280;62539;51.190;6.808;2022-09-21T03:57:51;102297.13;;;21.06;50.59
62617;BME280;62539;51.190;6.808;2022-09-21T04:00:17;102298.09;;;21.04;50.33
62617;BME280;62539;51.190;6.808;2022-09-21T04:02:43;102297.19;;;21.03;50.58
62617;BME280;62539;51.190;6.808;2022-09-21T04:05:11;102297.19;;;21.03;50.25
62617;BME280;62539;51.190;6.808;2022-09-21T04:07:39;102295.50;;;21.00;50.72
62617;BME280;62539;51.190;6.808;2022-09-21T04:10:08;102292.88;;;20.99;50.45
62617;BME280;62539;51.190;6.808;2022-09-21T04:12:37;102293.78;;;20.98;50.65
62617;BME280;62539;51.190;6.808;2022-09-21T04:15:05;102294.69;;;20.97;50.67
62617;BME280;62539;51.190;6.808;2022-09-21T04:17:32;102296.47;;;20.96;50.58
62617;BME280;62539;51.190;6.808;2022-09-21T04:19:58;102291.22;;;20.95;50.44
62617;BME280;62539;51.190;6.808;2022-09-21T04:22:24;102293.84;;;20.95;50.43
62617;BME280;62539;51.190;6.808;2022-09-21T04:24:50;102297.38;;;20.94;50.54
62617;BME280;62539;51.190;6.808;2022-09-21T04:27:16;102301.81;;;20.93;50.81
62617;BME280;62539;51.190;6.808;2022-09-21T04:29:42;102299.16;;;20.93;50.52
62617;BME280;62539;51.190;6.808;2022-09-21T04:32:09;102300.09;;;20.91;50.65
62617;BME280;62539;51.190;6.808;2022-09-21T04:34:35;102296.59;;;20.89;50.85
62617;BME280;62539;51.190;6.808;2022-09-21T04:37:06;102306.31;;;20.88;50.71
62617;BME280;62539;51.190;6.808;2022-09-21T04:39:33;102305.47;;;20.84;50.92
62617;BME280;62539;51.190;6.808;2022-09-21T04:41:59;102311.66;;;20.83;50.88
62617;BME280;62539;51.190;6.808;2022-09-21T04:44:26;102313.44;;;20.83;50.77
62617;BME280;62539;51.190;6.808;2022-09-21T04:46:51;102307.28;;;20.82;50.96
62617;BME280;62539;51.190;6.808;2022-09-21T04:49:17;102316.97;;;20.82;51.03
62617;BME280;62539;51.190;6.808;2022-09-21T04:51:42;102309.97;;;20.79;50.94
62617;BME280;62539;51.190;6.808;2022-09-21T04:54:08;102312.63;;;20.79;51.30
62617;BME280;62539;51.190;6.808;2022-09-21T04:56:34;102308.25;;;20.78;51.15
62617;BME280;62539;51.190;6.808;2022-09-21T04:58:59;102317.03;;;20.77;51.12
62617;BME280;62539;51.190;6.808;2022-09-21T05:01:24;102314.38;;;20.77;51.39
62617;BME280;62539;51.190;6.808;2022-09-21T05:03:50;102310.00;;;20.76;51.33
62617;BME280;62539;51.190;6.808;2022-09-21T05:06:15;102316.22;;;20.74;51.69
62617;BME280;62539;51.190;6.808;2022-09-21T05:08:41;102316.25;;;20.72;51.74
62617;BME280;62539;51.190;6.808;2022-09-21T05:11:25;102320.66;;;20.71;51.76
62617;BME280;62539;51.190;6.808;2022-09-21T05:13:51;102315.41;;;20.70;51.50
62617;BME280;62539;51.190;6.808;2022-09-21T05:16:17;102318.88;;;20.72;51.81
62617;BME280;62539;51.190;6.808;2022-09-21T05:18:44;102325.03;;;20.71;52.09
62617;BME280;62539;51.190;6.808;2022-09-21T05:21:11;102322.41;;;20.71;52.31
62617;BME280;62539;51.190;6.808;2022-09-21T05:23:38;102334.75;;;20.69;52.68
62617;BME280;62539;51.190;6.808;2022-09-21T05:26:04;102334.75;;;20.69;52.81
62617;BME280;62539;51.190;6.808;2022-09-21T05:28:30;102338.22;;;20.71;52.88
62617;BME280;62539;51.190;6.808;2022-09-21T05:31:02;102339.13;;;20.71;52.72
62617;BME280;62539;51.190;6.808;2022-09-21T05:33:29;102346.13;;;20.73;52.82
62617;BME280;62539;51.190;6.808;2022-09-21T05:38:40;102347.88;;;20.74;52.22
62617;BME280;62539;51.190;6.808;2022-09-21T05:41:07;102348.72;;;20.74;52.06
62617;BME280;62539;51.190;6.808;2022-09-21T05:43:32;102352.19;;;20.76;52.15
62617;BME280;62539;51.190;6.808;2022-09-21T05:49:02;102357.53;;;20.75;51.74
62617;BME280;62539;51.190;6.808;2022-09-21T05:51:45;102357.59;;;20.70;51.79
62617;BME280;62539;51.190;6.808;2022-09-21T05:54:29;102359.38;;;20.68;52.12
62617;BME280;62539;51.190;6.808;2022-09-21T06:05:42;102359.38;;;20.68;51.74
62617;BME280;62539;51.190;6.808;2022-09-21T06:08:08;102365.53;;;20.68;51.66
62617;BME280;62539;51.190;6.808;2022-09-21T06:10:34;102365.53;;;20.68;51.75
62617;BME280;62539;51.190;6.808;2022-09-21T06:13:00;102370.78;;;20.70;51.59
62617;BME280;62539;51.190;6.808;2022-09-21T06:15:25;102376.94;;;20.70;51.61
62617;BME280;62539;51.190;6.808;2022-09-21T06:17:51;102375.19;;;20.69;51.66
62617;BME280;62539;51.190;6.808;2022-09-21T06:20:16;102379.59;;;20.69;51.56
62617;BME280;62539;51.190;6.808;2022-09-21T06:22:42;102384.84;;;20.69;51.84
62617;BME280;62539;51.190;6.808;2022-09-21T06:25:08;102389.25;;;20.70;51.70
62617;BME280;62539;51.190;6.808;2022-09-21T06:27:33;102385.75;;;20.69;51.49
62617;BME280;62539;51.190;6.808;2022-09-21T06:29:59;102390.13;;;20.69;51.59
62617;BME280;62539;51.190;6.808;2022-09-21T06:32:24;102386.59;;;20.70;51.46
62617;BME280;62539;51.190;6.808;2022-09-21T06:34:49;102376.94;;;20.69;51.47
62617;BME280;62539;51.190;6.808;2022-09-21T06:37:15;102385.75;;;20.69;51.58
62617;BME280;62539;51.190;6.808;2022-09-21T06:39:40;102383.97;;;20.70;51.44
62617;BME280;62539;51.190;6.808;2022-09-21T06:42:06;102385.69;;;20.71;51.54
62617;BME280;62539;51.190;6.808;2022-09-21T06:44:32;102390.13;;;20.70;51.17
62617;BME280;62539;51.190;6.808;2022-09-21T06:46:57;102380.44;;;20.71;51.33
62617;BME280;62539;51.190;6.808;2022-09-21T06:49:22;102384.84;;;20.70;51.31
62617;BME280;62539;51.190;6.808;2022-09-21T06:51:48;102389.22;;;20.71;51.33
62617;BME280;62539;51.190;6.808;2022-09-21T06:54:13;102387.44;;;20.72;51.46
62617;BME280;62539;51.190;6.808;2022-09-21T06:56:38;102383.06;;;20.73;51.52
62617;BME280;62539;51.190;6.808;2022-09-21T06:59:06;102386.53;;;20.73;51.49
62617;BME280;62539;51.190;6.808;2022-09-21T07:01:32;102388.31;;;20.73;51.15
62617;BME280;62539;51.190;6.808;2022-09-21T07:03:57;102387.44;;;20.74;51.09
62617;BME280;62539;51.190;6.808;2022-09-21T07:06:23;102390.91;;;20.74;51.36
62617;BME280;62539;51.190;6.808;2022-09-21T07:08:51;102388.28;;;20.74;51.34
62617;BME280;62539;51.190;6.808;2022-09-21T07:11:17;102393.53;;;20.76;51.30
62617;BME280;62539;51.190;6.808;2022-09-21T07:13:43;102397.03;;;20.76;51.26
62617;BME280;62539;51.190;6.808;2022-09-21T07:16:09;102397.03;;;20.76;51.18
62617;BME280;62539;51.190;6.808;2022-09-21T07:18:38;102388.22;;;20.77;51.16
62617;BME280;62539;51.190;6.808;2022-09-21T07:21:06;102391.78;;;20.78;51.29
62617;BME280;62539;51.190;6.808;2022-09-21T07:23:34;102392.63;;;20.78;51.01
62617;BME280;62539;51.190;6.808;2022-09-21T07:26:02;102396.13;;;20.80;51.11
62617;BME280;62539;51.190;6.808;2022-09-21T07:28:32;102392.63;;;20.78;51.06
62617;BME280;62539;51.190;6.808;2022-09-21T07:31:13;102397.00;;;20.79;51.24
62617;BME280;62539;51.190;6.808;2022-09-21T07:33:44;102392.59;;;20.81;51.14
62617;BME280;62539;51.190;6.808;2022-09-21T07:36:12;102395.22;;;20.81;50.96
62617;BME280;62539;51.190;6.808;2022-09-21T07:38:40;102389.94;;;20.81;50.94
62617;BME280;62539;51.190;6.808;2022-09-21T07:41:14;102390.84;;;20.80;51.02
62617;BME280;62539;51.190;6.808;2022-09-21T07:43:40;102397.81;;;20.84;51.07
62617;BME280;62539;51.190;6.808;2022-09-21T07:46:07;102399.53;;;20.85;50.96
62617;BME280;62539;51.190;6.808;2022-09-21T07:48:34;102395.16;;;20.86;50.85
62617;BME280;62539;51.190;6.808;2022-09-21T07:51:02;102394.22;;;20.89;51.01
62617;BME280;62539;51.190;6.808;2022-09-21T07:53:33;102393.31;;;20.90;50.72
62617;BME280;62539;51.190;6.808;2022-09-21T07:56:04;102391.56;;;20.90;50.92
62617;BME280;62539;51.190;6.808;2022-09-21T07:58:32;102390.63;;;20.93;50.68
62617;BME280;62539;51.190;6.808;2022-09-21T08:01:16;102384.44;;;20.94;50.66
62617;BME280;62539;51.190;6.808;2022-09-21T08:03:42;102393.19;;;20.96;50.54
62617;BME280;62539;51.190;6.808;2022-09-21T08:06:07;102395.78;;;20.99;50.63
62617;BME280;62539;51.190;6.808;2022-09-21T08:08:33;102403.69;;;21.00;50.64
62617;BME280;62539;51.190;6.808;2022-09-21T08:11:06;102402.78;;;21.00;50.64
62617;BME280;62539;51.190;6.808;2022-09-21T08:13:32;102395.72;;;21.02;50.54
62617;BME280;62539;51.190;6.808;2022-09-21T08:16:02;102388.63;;;21.04;50.25
62617;BME280;62539;51.190;6.808;2022-09-21T08:18:28;102390.38;;;21.05;50.53
62617;BME280;62539;51.190;6.808;2022-09-21T08:20:58;102395.66;;;21.05;50.14
62617;BME280;62539;51.190;6.808;2022-09-21T08:23:24;102398.41;;;20.99;50.25
62617;BME280;62539;51.190;6.808;2022-09-21T08:25:57;102399.19;;;21.06;50.14
62617;BME280;62539;51.190;6.808;2022-09-21T08:28:27;102393.84;;;21.07;50.13
62617;BME280;62539;51.190;6.808;2022-09-21T08:30:58;102400.88;;;21.08;50.30
62617;BME280;62539;51.190;6.808;2022-09-21T08:33:24;102400.84;;;21.10;50.11
62617;BME280;62539;51.190;6.808;2022-09-21T08:35:56;102404.28;;;21.13;50.02
62617;BME280;62539;51.190;6.808;2022-09-21T08:38:24;102404.22;;;21.17;50.34
62617;BME280;62539;51.190;6.808;2022-09-21T08:40:50;102403.31;;;21.19;50.26
62617;BME280;62539;51.190;6.808;2022-09-21T08:43:34;102398.91;;;21.20;50.01
62617;BME280;62539;51.190;6.808;2022-09-21T08:46:06;102401.41;;;21.26;50.06
62617;BME280;62539;51.190;6.808;2022-09-21T08:48:39;102400.50;;;21.27;49.70
62617;BME280;62539;51.190;6.808;2022-09-21T08:51:13;102399.56;;;21.29;49.64
62617;BME280;62539;51.190;6.808;2022-09-21T08:53:48;102397.75;;;21.32;49.78
62617;BME280;62539;51.190;6.808;2022-09-21T08:56:19;102402.13;;;21.34;49.48
62617;BME280;62539;51.190;6.808;2022-09-21T08:58:47;102398.59;;;21.35;49.41
62617;BME280;62539;51.190;6.808;2022-09-21T09:04:03;102402.06;;;21.37;49.33
62617;BME280;62539;51.190;6.808;2022-09-21T09:07:07;102396.72;;;21.39;49.30
62617;BME280;62539;51.190;6.808;2022-09-21T09:10:18;102400.22;;;21.41;49.52
62617;BME280;62539;51.190;6.808;2022-09-21T09:15:52;102398.31;;;21.48;49.17
62617;BME280;62539;51.190;6.808;2022-09-21T09:21:41;102402.53;;;21.56;49.42
62617;BME280;62539;51.190;6.808;2022-09-21T09:24:17;102409.47;;;21.61;49.07
62617;BME280;62539;51.190;6.808;2022-09-21T09:27:06;102400.66;;;21.62;48.77
62617;BME280;62539;51.190;6.808;2022-09-21T09:32:40;102397.00;;;21.69;49.04
62617;BME280;62539;51.190;6.808;2022-09-21T09:35:27;102403.13;;;21.72;48.72
62617;BME280;62539;51.190;6.808;2022-09-21T09:38:13;102404.78;;;21.77;48.65
62617;BME280;62539;51.190;6.808;2022-09-21T09:46:48;102405.53;;;21.82;48.66
62617;BME280;62539;51.190;6.808;2022-09-21T09:50:04;102394.00;;;21.86;48.42
62617;BME280;62539;51.190;6.808;2022-09-21T09:52:31;102393.88;;;21.92;48.25
62617;BME280;62539;51.190;6.808;2022-09-21T09:54:58;102401.72;;;21.95;48.26
62617;BME280;62539;51.190;6.808;2022-09-21T09:57:30;102391.97;;;21.97;48.27
62617;BME280;62539;51.190;6.808;2022-09-21T10:00:00;102393.66;;;22.01;48.22
62617;BME280;62539;51.190;6.808;2022-09-21T10:02:29;102399.72;;;22.05;48.43
62617;BME280;62539;51.190;6.808;2022-09-21T10:07:40;102390.78;;;22.11;47.81
62617;BME280;62539;51.190;6.808;2022-09-21T10:10:36;102385.44;;;22.12;48.08
62617;BME280;62539;51.190;6.808;2022-09-21T10:13:11;102390.66;;;22.17;47.97
62617;BME280;62539;51.190;6.808;2022-09-21T10:15:49;102389.66;;;22.21;48.07
62617;BME280;62539;51.190;6.808;2022-09-21T10:20:53;102395.63;;;22.29;47.74
62617;BME280;62539;51.190;6.808;2022-09-21T10:23:22;102381.44;;;22.32;47.91
62617;BME280;62539;51.190;6.808;2022-09-21T10:25:53;102386.66;;;22.35;47.76
62617;BME280;62539;51.190;6.808;2022-09-21T10:28:22;102385.72;;;22.38;47.70
62617;BME280;62539;51.190;6.808;2022-09-21T10:30:48;102385.66;;;22.41;47.53
62617;BME280;62539;51.190;6.808;2022-09-21T10:33:19;102387.34;;;22.45;47.44
62617;BME280;62539;51.190;6.808;2022-09-21T10:35:50;102389.03;;;22.48;47.89
62617;BME280;62539;51.190;6.808;2022-09-21T10:38:18;102381.91;;;22.51;47.78
62617;BME280;62539;51.190;6.808;2022-09-21T10:40:50;102376.53;;;22.54;47.77
62617;BME280;62539;51.190;6.808;2022-09-21T10:43:33;102377.38;;;22.55;47.50
62617;BME280;62539;51.190;6.808;2022-09-21T10:46:06;102374.63;;;22.59;47.75
62617;BME280;62539;51.190;6.808;2022-09-21T10:48:31;102373.66;;;22.62;47.79
62617;BME280;62539;51.190;6.808;2022-09-21T10:50:56;102371.84;;;22.64;47.54
62617;BME280;62539;51.190;6.808;2022-09-21T10:53:33;102362.16;;;22.65;47.56
62617;BME280;62539;51.190;6.808;2022-09-21T10:56:04;102365.53;;;22.70;47.81
62617;BME280;62539;51.190;6.808;2022-09-21T10:58:32;102370.75;;;22.73;47.45
62617;BME280;62539;51.190;6.808;2022-09-21T11:01:22;102371.59;;;22.73;47.57
62617;BME280;62539;51.190;6.808;2022-09-21T11:06:36;102361.03;;;22.73;42.37
62617;BME280;62539;51.190;6.808;2022-09-21T11:09:14;102361.03;;;22.73;42.62
62617;BME280;62539;51.190;6.808;2022-09-21T11:12:08;102356.69;;;22.71;41.50
62617;BME280;62539;51.190;6.808;2022-09-21T11:17:38;102354.06;;;22.71;40.79
62617;BME280;62539;51.190;6.808;2022-09-21T11:26:41;102354.97;;;22.70;41.15
62617;BME280;62539;51.190;6.808;2022-09-21T11:36:15;102341.59;;;22.74;41.23
62617;BME280;62539;51.190;6.808;2022-09-21T11:39:16;102335.38;;;22.77;41.20
62617;BME280;62539;51.190;6.808;2022-09-21T11:44:54;102325.53;;;22.82;39.88
62617;BME280;62539;51.190;6.808;2022-09-21T11:47:36;102326.34;;;22.84;39.22
62617;BME280;62539;51.190;6.808;2022-09-21T11:50:31;102332.47;;;22.86;38.95
62617;BME280;62539;51.190;6.808;2022-09-21T11:56:16;102323.56;;;22.89;38.79
62617;BME280;62539;51.190;6.808;2022-09-21T12:02:35;102317.31;;;22.92;38.04
62617;BME280;62539;51.190;6.808;2022-09-21T12:10:45;102311.78;;;23.01;39.55
62617;BME280;62539;51.190;6.808;2022-09-21T12:13:24;102307.22;;;23.04;40.23
62617;BME280;62539;51.190;6.808;2022-09-21T12:16:34;102307.22;;;23.06;40.32
62617;BME280;62539;51.190;6.808;2022-09-21T12:19:37;102303.41;;;23.15;41.18
62617;BME280;62539;51.190;6.808;2022-09-21T12:22:17;102304.09;;;23.22;41.58
62617;BME280;62539;51.190;6.808;2022-09-21T12:25:02;102305.84;;;23.23;41.66
62617;BME280;62539;51.190;6.808;2022-09-21T12:27:43;102303.84;;;23.31;41.95
62617;BME280;62539;51.190;6.808;2022-09-21T12:30:15;102301.06;;;23.36;42.14
62617;BME280;62539;51.190;6.808;2022-09-21T12:32:54;102299.28;;;23.36;42.35
62617;BME280;62539;51.190;6.808;2022-09-21T12:35:35;102302.78;;;23.37;42.06
62617;BME280;62539;51.190;6.808;2022-09-21T12:38:29;102297.59;;;23.33;42.16
62617;BME280;62539;51.190;6.808;2022-09-21T12:41:10;102296.00;;;23.28;42.84
62617;BME280;62539;51.190;6.808;2022-09-21T12:44:08;102295.25;;;23.23;43.01
62617;BME280;62539;51.190;6.808;2022-09-21T12:47:04;102291.81;;;23.19;42.84
62617;BME280;62539;51.190;6.808;2022-09-21T12:49:40;102284.75;;;23.19;42.84
62617;BME280;62539;51.190;6.808;2022-09-21T12:52:15;102291.00;;;23.17;43.58
62617;BME280;62539;51.190;6.808;2022-09-21T12:54:55;102292.06;;;23.11;43.57
62617;BME280;62539;51.190;6.808;2022-09-21T12:58:11;102290.41;;;23.07;43.62
62617;BME280;62539;51.190;6.808;2022-09-21T13:12:55;102279.94;;;23.02;44.51
62617;BME280;62539;51.190;6.808;2022-09-21T13:15:29;102280.00;;;23.01;44.45
62617;BME280;62539;51.190;6.808;2022-09-21T13:17:58;102280.00;;;23.01;44.62
62617;BME280;62539;51.190;6.808;2022-09-21T13:20:32;102277.38;;;22.99;45.04
62617;BME280;62539;51.190;6.808;2022-09-21T13:23:00;102278.28;;;23.00;45.17
62617;BME280;62539;51.190;6.808;2022-09-21T13:25:28;102272.97;;;23.00;45.65
62617;BME280;62539;51.190;6.808;2022-09-21T13:33:28;102270.69;;;22.87;46.11
62617;BME280;62539;51.190;6.808;2022-09-21T13:41:25;102263.59;;;22.88;46.87
62617;BME280;62539;51.190;6.808;2022-09-21T13:49:38;102260.84;;;22.93;47.01
62617;BME280;62539;51.190;6.808;2022-09-21T13:55:00;102257.22;;;22.95;47.25
62617;BME280;62539;51.190;6.808;2022-09-21T14:05:42;102243.06;;;22.98;47.08
62617;BME280;62539;51.190;6.808;2022-09-21T14:10:38;102235.00;;;23.01;47.27
62617;BME280;62539;51.190;6.808;2022-09-21T14:13:28;102234.19;;;22.99;47.57
62617;BME280;62539;51.190;6.808;2022-09-21T14:19:06;102246.53;;;23.00;47.43
62617;BME280;62539;51.190;6.808;2022-09-21T14:27:22;102235.84;;;23.03;47.82
62617;BME280;62539;51.190;6.808;2022-09-21T14:33:19;102232.19;;;23.07;48.16
62617;BME280;62539;51.190;6.808;2022-09-21T14:35:50;102226.63;;;23.15;47.68
62617;BME280;62539;51.190;6.808;2022-09-21T14:38:20;102227.53;;;23.15;48.06
62617;BME280;62539;51.190;6.808;2022-09-21T14:40:51;102219.47;;;23.18;48.10
62617;BME280;62539;51.190;6.808;2022-09-21T14:43:26;102224.78;;;23.18;47.81
62617;BME280;62539;51.190;6.808;2022-09-21T14:51:55;102203.44;;;23.25;47.60
62617;BME280;62539;51.190;6.808;2022-09-21T15:07:23;102199.88;;;23.26;47.54
62617;BME280;62539;51.190;6.808;2022-09-21T15:10:27;102198.16;;;23.25;47.89
62617;BME280;62539;51.190;6.808;2022-09-21T15:13:37;102192.75;;;23.28;47.43
62617;BME280;62539;51.190;6.808;2022-09-21T15:21:54;102187.44;;;23.28;47.73
62617;BME280;62539;51.190;6.808;2022-09-21T15:24:27;102185.53;;;23.33;47.65
62617;BME280;62539;51.190;6.808;2022-09-21T15:27:12;102186.47;;;23.30;47.16
62617;BME280;62539;51.190;6.808;2022-09-21T15:29:48;102187.34;;;23.31;47.23
62617;BME280;62539;51.190;6.808;2022-09-21T15:32:38;102185.66;;;23.28;47.35
62617;BME280;62539;51.190;6.808;2022-09-21T15:37:45;102175.75;;;23.35;47.21
62617;BME280;62539;51.190;6.808;2022-09-21T15:48:16;102175.16;;;23.25;46.94
62617;BME280;62539;51.190;6.808;2022-09-21T15:50:47;102169.66;;;23.31;46.71
62617;BME280;62539;51.190;6.808;2022-09-21T15:53:22;102176.75;;;23.31;47.23
62617;BME280;62539;51.190;6.808;2022-09-21T15:55:52;102168.81;;;23.31;47.08
62617;BME280;62539;51.190;6.808;2022-09-21T15:58:36;102170.59;;;23.30;47.22
62617;BME280;62539;51.190;6.808;2022-09-21T16:01:22;102170.69;;;23.27;47.14
62617;BME280;62539;51.190;6.808;2022-09-21T16:04:01;102171.56;;;23.28;46.97
62617;BME280;62539;51.190;6.808;2022-09-21T16:06:38;102160.06;;;23.29;47.22
62617;BME280;62539;51.190;6.808;2022-09-21T16:11:56;102162.66;;;23.30;47.33
62617;BME280;62539;51.190;6.808;2022-09-21T16:14:23;102172.41;;;23.28;47.25
62617;BME280;62539;51.190;6.808;2022-09-21T16:22:13;102161.06;;;23.25;46.41
62617;BME280;62539;51.190;6.808;2022-09-21T16:24:44;102170.78;;;23.24;46.58
62617;BME280;62539;51.190;6.808;2022-09-21T16:27:18;102168.16;;;23.23;46.29